Hlavní strana
METAR-TAF:

METAR-TAF

Letiště :

Letiště Teherán-Mehrabád

Teherán, Írán

zeměpisná šířka: 35-41N, zeměpisná délka: 051-21E, výška: 1204 m

Aktuální stav počasí

Zpráva byla vytvořena před 33 minutami, v 22:30 UTC
Bezvětří
Teplota 27°C
Vlhkost vzduchu 18%
Tlak 1007 hPa
Viditelnost 10 km a více
Žádná oblačnost pod 1500 m, nevyskytují se cumulonimby.

METAR: OIII 182230Z 00000KT CAVOK 27/01 Q1007 A2975

Čas: 03:33 (23:03 UTC)

Předpověď počasí

Zpráva byla vytvořena před 5 hodinami a 33 minutami, v 17:30 UTC
Předpověď platná od 18 v 18 UTC do 19 v 24 UTC
Severoseverozápadní vítr 8 kt
Viditelnost 10 km a více
Žádná oblačnost pod 1500 m, nevyskytují se cumulonimby.
Dočasný
od 19 v 01 UTC do 19 v 06 UTC
Východní vítr 12 kt s nárazy do 21 kt
Změna
od 19 v 10 UTC do 19 v 12 UTC
Západoseverozápadní vítr 12 kt
Dočasný
od 19 v 15 UTC do 19 v 18 UTC
Severozápadní vítr 14 kt s nárazy do 23 kt

TAF: OIII 181730Z 1818/1924 33004MPS CAVOK TEMPO 1901/1906 09006G11MPS BECMG 1910/1912 29006MPS TEMPO 1915/1918 32007G12MPS

Stav a předpovědi počasí z více než 4 000 letišť (zprávy METAR a TAF).

Červené a žluté tečky na mapě představují dostupné meteorologické stanice.

Když kurzor umístíte na tečku, zobrazí se název stanice.

Pak kliknutím zobrazíte stav a předpověď počasí.

Chcete-li změnit mapu, kliknutím na zelené tlačítko se znaménkem +mapu přiblížíte, kliknutím na zelené tlačítko se znaménkem – mapu oddálíte a kliknutím na zelené šipky přejdete na sousední mapy.


METAR-TAF: